Time;durP1;ratioP1;P1;durP2;ratioP2;P2;SDS_P1;SDS_P2;PMS_P1;PMS_P2;Temp;Humidity;BMP_temperature;BMP_pressure;BME280_temperature;BME280_humidity;BME280_pressure;Samples;Min_cycle;Max_cycle;Signal;HPM_P1;HPM_P2
2023/11/19 00:01:48;;;;;;;13.93;12.35;;;13.50;99.90;;;;;;5039413;28;20029;-71
2023/11/19 00:04:13;;;;;;;15.50;12.13;;;13.50;99.90;;;;;;5043792;28;20386;-71
2023/11/19 00:06:39;;;;;;;14.52;12.20;;;13.50;99.90;;;;;;5045419;28;20030;-71
2023/11/19 00:09:04;;;;;;;18.23;11.13;;;13.50;99.90;;;;;;5040750;28;20028;-71
2023/11/19 00:11:30;;;;;;;16.83;10.88;;;13.50;99.90;;;;;;5049743;28;20468;-71
2023/11/19 00:13:55;;;;;;;15.27;9.68;;;13.50;99.90;;;;;;5051222;28;20048;-71
2023/11/19 00:16:21;;;;;;;11.68;8.82;;;13.50;99.90;;;;;;5049208;28;20017;-71
2023/11/19 00:18:46;;;;;;;11.90;8.32;;;13.60;99.90;;;;;;5035839;28;20113;-71
2023/11/19 00:21:12;;;;;;;16.00;8.77;;;13.60;99.90;;;;;;5047541;28;20135;-71
2023/11/19 00:23:38;;;;;;;14.00;7.72;;;13.60;99.90;;;;;;5049652;28;20048;-71
2023/11/19 00:26:05;;;;;;;11.60;8.05;;;13.60;99.90;;;;;;5037214;28;20021;-72
2023/11/19 00:28:32;;;;;;;14.43;7.45;;;13.60;99.90;;;;;;5035233;28;20033;-72
2023/11/19 00:30:58;;;;;;;14.82;7.60;;;13.60;99.90;;;;;;5046461;28;20354;-71
2023/11/19 00:33:24;;;;;;;14.80;8.02;;;13.60;99.90;;;;;;5038149;28;20086;-71
2023/11/19 00:35:50;;;;;;;19.45;8.32;;;13.70;99.90;;;;;;5039265;28;20057;-71
2023/11/19 00:38:16;;;;;;;14.57;8.60;;;13.60;99.90;;;;;;5045997;28;20040;-71
2023/11/19 00:40:41;;;;;;;20.33;8.38;;;13.70;99.90;;;;;;5043223;28;20025;-72
2023/11/19 00:43:07;;;;;;;15.30;7.50;;;13.70;99.90;;;;;;5044956;28;20049;-71
2023/11/19 00:45:33;;;;;;;14.80;6.22;;;13.70;99.90;;;;;;5034607;28;20021;-71
2023/11/19 00:47:59;;;;;;;14.02;5.60;;;13.80;99.90;;;;;;5041684;28;20390;-71
2023/11/19 00:50:25;;;;;;;16.92;5.53;;;13.70;99.90;;;;;;5042977;28;20146;-71
2023/11/19 00:52:51;;;;;;;10.18;5.28;;;13.70;99.90;;;;;;5034234;28;20433;-72
2023/11/19 00:55:17;;;;;;;13.48;5.05;;;13.70;99.90;;;;;;5039902;28;20113;-71
2023/11/19 00:57:43;;;;;;;19.73;5.85;;;13.80;99.90;;;;;;5045058;28;20028;-71
2023/11/19 01:00:18;;;;;;;15.63;4.82;;;13.80;99.90;;;;;;5039245;28;20397;-72
2023/11/19 01:02:45;;;;;;;16.23;5.93;;;13.80;99.90;;;;;;5044203;28;20044;-71
2023/11/19 01:05:14;;;;;;;17.38;5.43;;;13.70;99.90;;;;;;5039012;28;20124;-72
2023/11/19 01:07:39;;;;;;;15.90;5.32;;;13.70;99.90;;;;;;5047942;28;20048;-71
2023/11/19 01:10:06;;;;;;;16.13;4.47;;;13.70;99.90;;;;;;5036758;28;20029;-71
2023/11/19 01:12:31;;;;;;;21.75;5.20;;;13.70;99.90;;;;;;5038573;28;20143;-72
2023/11/19 01:14:57;;;;;;;18.15;4.38;;;13.70;99.90;;;;;;5043098;28;20544;-72
2023/11/19 01:17:23;;;;;;;18.75;4.95;;;13.80;99.90;;;;;;5041518;28;20440;-72
2023/11/19 01:19:50;;;;;;;15.57;4.28;;;13.70;99.90;;;;;;5035435;28;20025;-71
2023/11/19 01:22:15;;;;;;;16.80;4.80;;;13.80;99.90;;;;;;5050022;28;20040;-71
2023/11/19 01:24:41;;;;;;;15.55;4.53;;;13.80;99.90;;;;;;5036618;28;20037;-72
2023/11/19 01:27:06;;;;;;;16.08;4.10;;;13.80;99.90;;;;;;5038256;28;20032;-72
2023/11/19 01:29:32;;;;;;;22.83;4.10;;;13.70;99.90;;;;;;5037246;28;20035;-72
2023/11/19 01:31:58;;;;;;;21.33;4.70;;;13.70;99.90;;;;;;5037841;28;20460;-71
2023/11/19 01:34:23;;;;;;;17.20;4.13;;;13.80;99.90;;;;;;5040409;28;20036;-72
2023/11/19 01:36:49;;;;;;;20.50;3.22;;;13.80;99.90;;;;;;5042520;28;20032;-71
2023/11/19 01:39:19;;;;;;;24.30;4.30;;;13.70;99.90;;;;;;5037589;28;20032;-72
2023/11/19 01:41:45;;;;;;;22.63;4.05;;;13.80;99.90;;;;;;5039474;28;20029;-72
2023/11/19 01:44:13;;;;;;;22.38;3.75;;;13.80;99.90;;;;;;5039641;28;20104;-72
2023/11/19 01:46:42;;;;;;;14.27;2.78;;;13.80;99.90;;;;;;5038645;28;20071;-72
2023/11/19 01:49:08;;;;;;;22.48;2.95;;;13.80;99.90;;;;;;5038766;28;20366;-71
2023/11/19 01:51:34;;;;;;;15.70;2.67;;;13.80;99.90;;;;;;5050666;28;20505;-72
2023/11/19 01:54:01;;;;;;;20.38;2.53;;;13.80;99.90;;;;;;5049757;28;20075;-71
2023/11/19 01:56:27;;;;;;;19.23;2.17;;;13.80;99.90;;;;;;5049208;28;20028;-72
2023/11/19 01:58:55;;;;;;;22.85;3.08;;;13.80;99.90;;;;;;5035793;28;20036;-72
2023/11/19 02:01:22;;;;;;;17.73;3.05;;;13.80;99.90;;;;;;5040133;28;20048;-72
2023/11/19 02:03:47;;;;;;;24.98;2.83;;;13.70;99.90;;;;;;5041367;28;20513;-71
2023/11/19 02:06:13;;;;;;;20.00;2.40;;;13.80;99.90;;;;;;5034857;28;20057;-72
2023/11/19 02:08:39;;;;;;;21.00;3.03;;;13.70;99.90;;;;;;5038944;28;20469;-72
2023/11/19 02:11:06;;;;;;;24.48;3.55;;;13.70;99.90;;;;;;5037151;28;20430;-72
2023/11/19 02:13:32;;;;;;;17.98;2.72;;;13.70;99.90;;;;;;5047316;28;20033;-72
2023/11/19 02:15:59;;;;;;;19.38;2.53;;;13.70;99.90;;;;;;5039543;28;20038;-72
2023/11/19 02:18:29;;;;;;;18.10;3.03;;;13.70;99.90;;;;;;5040213;28;20036;-72
2023/11/19 02:20:59;;;;;;;16.77;2.67;;;13.60;99.90;;;;;;5033170;28;20029;-72
2023/11/19 02:23:28;;;;;;;24.65;3.00;;;13.50;99.90;;;;;;5034779;28;20156;-72
2023/11/19 02:26:13;;;;;;;27.08;2.85;;;13.50;99.90;;;;;;5037209;28;20037;-72
2023/11/19 02:28:40;;;;;;;24.73;3.60;;;13.40;99.90;;;;;;5039231;28;20029;-72
2023/11/19 02:31:09;;;;;;;27.17;2.67;;;13.40;99.90;;;;;;5036076;28;20039;-72
2023/11/19 02:33:38;;;;;;;19.77;2.70;;;13.40;99.90;;;;;;5037305;28;20052;-71
2023/11/19 02:36:07;;;;;;;24.15;3.33;;;13.40;99.90;;;;;;5034954;28;20117;-72
2023/11/19 02:38:36;;;;;;;23.92;2.50;;;13.40;99.90;;;;;;5037121;28;20032;-72
2023/11/19 02:41:05;;;;;;;24.17;3.13;;;13.30;99.90;;;;;;5032531;28;20037;-71
2023/11/19 02:43:33;;;;;;;25.80;2.70;;;13.30;99.90;;;;;;5035265;28;20101;-72
2023/11/19 02:46:08;;;;;;;25.08;2.85;;;13.20;99.90;;;;;;5037229;28;20032;-71
2023/11/19 02:48:37;;;;;;;24.70;3.53;;;13.20;99.90;;;;;;5034964;28;20032;-71
2023/11/19 02:51:04;;;;;;;26.70;3.17;;;13.20;99.90;;;;;;5040020;28;20075;-71
2023/11/19 02:53:30;;;;;;;29.38;2.70;;;13.20;99.90;;;;;;5033398;28;20442;-71
2023/11/19 02:56:02;;;;;;;21.98;2.53;;;13.20;99.90;;;;;;5040116;28;20024;-71
2023/11/19 02:58:28;;;;;;;30.45;3.75;;;13.30;99.90;;;;;;5044394;28;20017;-72
2023/11/19 03:00:57;;;;;;;22.42;2.58;;;13.30;99.90;;;;;;5046254;28;20116;-71
2023/11/19 03:03:28;;;;;;;28.25;3.38;;;13.30;99.90;;;;;;5045599;28;20033;-71
2023/11/19 03:05:55;;;;;;;32.15;4.18;;;13.20;99.90;;;;;;5046354;28;20025;-72
2023/11/19 03:08:20;;;;;;;30.10;3.90;;;13.20;99.90;;;;;;5050804;28;20361;-72
2023/11/19 03:10:46;;;;;;;36.33;4.30;;;13.20;99.90;;;;;;5039294;28;20078;-71
2023/11/19 03:13:17;;;;;;;31.67;3.92;;;13.20;99.90;;;;;;5050335;28;20021;-72
2023/11/19 03:15:43;;;;;;;31.75;4.43;;;13.20;99.90;;;;;;5042492;28;20112;-71
2023/11/19 03:18:08;;;;;;;30.95;3.50;;;13.10;99.90;;;;;;5033122;28;20104;-71
2023/11/19 03:20:34;;;;;;;27.23;3.20;;;13.00;99.90;;;;;;5040392;28;20035;-71
2023/11/19 03:23:01;;;;;;;30.38;3.65;;;13.00;99.90;;;;;;5042771;28;20112;-72
2023/11/19 03:25:32;;;;;;;32.30;4.75;;;12.90;99.90;;;;;;5031790;28;20029;-71
2023/11/19 03:27:59;;;;;;;31.00;4.13;;;12.80;99.90;;;;;;5033073;28;20068;-71
2023/11/19 03:30:25;;;;;;;34.42;4.13;;;12.70;99.90;;;;;;5036660;28;20029;-71
2023/11/19 03:32:50;;;;;;;34.25;4.05;;;12.60;99.90;;;;;;5049515;28;20017;-71
2023/11/19 03:35:16;;;;;;;23.90;2.83;;;12.60;99.90;;;;;;5041865;28;20080;-72
2023/11/19 03:37:43;;;;;;;28.27;3.72;;;12.60;99.90;;;;;;5030838;28;20036;-72
2023/11/19 03:40:10;;;;;;;30.92;4.63;;;12.50;99.90;;;;;;5029753;28;20072;-72
2023/11/19 03:42:35;;;;;;;27.77;3.30;;;12.50;99.90;;;;;;5037381;28;20041;-72
2023/11/19 03:45:04;;;;;;;27.92;3.67;;;12.50;99.90;;;;;;5046064;28;20053;-72
2023/11/19 03:47:29;;;;;;;28.38;4.03;;;12.40;99.90;;;;;;5036480;28;20389;-72
2023/11/19 03:49:55;;;;;;;23.13;3.25;;;12.40;99.90;;;;;;5043436;28;20025;-72
2023/11/19 03:52:20;;;;;;;37.03;4.50;;;12.30;99.90;;;;;;5039555;28;20035;-72
2023/11/19 03:54:46;;;;;;;33.97;3.58;;;12.30;99.90;;;;;;5029817;28;20037;-71
2023/11/19 03:57:13;;;;;;;34.17;4.03;;;12.20;99.90;;;;;;5042520;28;20820;-72
2023/11/19 03:59:39;;;;;;;30.25;2.85;;;12.20;99.90;;;;;;5030544;28;20022;-72
2023/11/19 04:02:04;;;;;;;28.23;3.75;;;12.10;99.90;;;;;;5029901;28;20064;-72
2023/11/19 04:04:30;;;;;;;30.05;3.67;;;12.00;99.90;;;;;;5035715;28;20069;-71
2023/11/19 04:06:56;;;;;;;28.40;3.40;;;12.10;99.90;;;;;;5030752;28;20116;-71
2023/11/19 04:09:22;;;;;;;28.95;3.22;;;12.00;99.90;;;;;;5034273;28;20049;-71
2023/11/19 04:11:48;;;;;;;43.13;4.53;;;12.00;99.90;;;;;;5032383;28;20029;-71
2023/11/19 04:14:14;;;;;;;30.05;3.08;;;12.00;99.90;;;;;;5034548;28;20102;-72
2023/11/19 04:16:40;;;;;;;29.45;4.28;;;12.00;99.90;;;;;;5047989;28;20032;-72
2023/11/19 04:19:06;;;;;;;27.08;3.45;;;12.00;99.90;;;;;;5035945;28;20025;-72
2023/11/19 04:21:32;;;;;;;32.72;3.33;;;12.00;99.90;;;;;;5049416;28;20465;-72
2023/11/19 04:23:58;;;;;;;24.23;2.35;;;12.00;99.90;;;;;;5047434;28;20396;-72
2023/11/19 04:26:23;;;;;;;30.23;3.35;;;12.00;99.90;;;;;;5039637;28;20051;-72
2023/11/19 04:28:49;;;;;;;34.13;4.20;;;12.00;99.90;;;;;;5044894;28;20031;-71
2023/11/19 04:31:16;;;;;;;26.50;3.22;;;11.90;99.90;;;;;;5039000;28;20104;-72
2023/11/19 04:33:42;;;;;;;25.92;3.65;;;11.90;99.90;;;;;;5041158;28;20033;-71
2023/11/19 04:36:08;;;;;;;31.80;3.28;;;11.90;99.90;;;;;;5030268;28;20033;-72
2023/11/19 04:38:34;;;;;;;27.88;3.30;;;11.90;99.90;;;;;;5031438;28;20033;-72
2023/11/19 04:41:00;;;;;;;29.52;3.75;;;11.90;99.90;;;;;;5037400;28;20029;-71
2023/11/19 04:43:25;;;;;;;34.08;3.55;;;11.80;99.90;;;;;;5031733;28;20045;-72
2023/11/19 04:45:51;;;;;;;32.95;3.72;;;11.80;99.90;;;;;;5030643;28;20136;-72
2023/11/19 04:48:16;;;;;;;26.05;3.42;;;11.80;99.90;;;;;;5036330;28;20034;-72
2023/11/19 04:50:42;;;;;;;34.80;3.83;;;11.80;99.90;;;;;;5032574;28;20029;-71
2023/11/19 04:53:07;;;;;;;28.55;3.35;;;11.70;99.90;;;;;;5042030;28;20094;-72
2023/11/19 04:55:33;;;;;;;30.73;3.65;;;11.70;99.90;;;;;;5033447;28;20080;-71
2023/11/19 04:57:58;;;;;;;36.08;4.28;;;11.60;99.90;;;;;;5034199;28;20076;-71
2023/11/19 05:00:25;;;;;;;30.67;3.10;;;11.60;99.90;;;;;;5033426;28;20029;-71
2023/11/19 05:02:51;;;;;;;35.10;4.07;;;11.60;99.90;;;;;;5034187;28;20482;-72
2023/11/19 05:05:17;;;;;;;41.45;4.93;;;11.60;99.90;;;;;;5035723;28;20033;-72
2023/11/19 05:07:43;;;;;;;34.97;3.42;;;11.60;99.90;;;;;;5044952;28;20885;-72
2023/11/19 05:10:09;;;;;;;28.48;3.20;;;11.60;99.90;;;;;;5040628;28;20037;-71
2023/11/19 05:12:34;;;;;;;50.33;4.78;;;11.60;99.90;;;;;;5048713;28;20025;-71
2023/11/19 05:15:00;;;;;;;29.88;3.97;;;11.60;99.90;;;;;;5034496;28;20087;-71
2023/11/19 05:17:25;;;;;;;32.50;4.55;;;11.60;99.90;;;;;;5047760;28;20091;-71
2023/11/19 05:19:51;;;;;;;38.85;3.53;;;11.70;99.90;;;;;;5048199;28;20025;-71
2023/11/19 05:22:17;;;;;;;35.85;4.10;;;11.70;99.90;;;;;;5040842;28;20029;-71
2023/11/19 05:24:43;;;;;;;33.20;3.72;;;11.60;99.90;;;;;;5038057;28;20041;-71
2023/11/19 05:27:11;;;;;;;39.00;4.47;;;11.60;99.90;;;;;;5046746;28;20534;-71
2023/11/19 05:29:38;;;;;;;26.63;4.07;;;11.60;99.90;;;;;;5041924;28;20022;-72
2023/11/19 05:32:05;;;;;;;41.90;4.47;;;11.60;99.90;;;;;;5034460;28;20060;-71
2023/11/19 05:34:30;;;;;;;29.00;3.47;;;11.70;99.90;;;;;;5047559;28;20037;-71
2023/11/19 05:36:57;;;;;;;27.92;4.60;;;11.70;99.90;;;;;;5041348;28;20053;-71
2023/11/19 05:39:22;;;;;;;34.60;3.97;;;11.70;99.90;;;;;;5046638;28;20033;-71
2023/11/19 05:41:48;;;;;;;34.80;3.45;;;11.70;99.90;;;;;;5039764;28;20070;-72
2023/11/19 05:44:14;;;;;;;32.42;3.50;;;11.60;99.90;;;;;;5032868;28;20060;-71
2023/11/19 05:46:42;;;;;;;21.33;3.38;;;11.60;99.90;;;;;;5035334;28;20021;-71
2023/11/19 05:49:08;;;;;;;41.63;5.20;;;11.60;99.90;;;;;;5038189;28;20096;-71
2023/11/19 05:51:40;;;;;;;34.72;4.00;;;11.60;99.90;;;;;;5045472;28;20126;-71
2023/11/19 05:54:10;;;;;;;27.67;3.50;;;11.50;99.90;;;;;;5035375;28;20021;-71
2023/11/19 05:56:36;;;;;;;35.35;3.83;;;11.50;99.90;;;;;;5040035;28;20040;-71
2023/11/19 05:59:06;;;;;;;36.53;4.43;;;11.50;99.90;;;;;;5035490;28;20033;-71
2023/11/19 06:01:33;;;;;;;33.63;3.92;;;11.40;99.90;;;;;;5041003;28;20084;-71
2023/11/19 06:04:00;;;;;;;34.95;4.20;;;11.40;99.90;;;;;;5042807;28;20041;-71
2023/11/19 06:06:26;;;;;;;33.28;4.15;;;11.50;99.90;;;;;;5035850;28;20017;-70
2023/11/19 06:08:52;;;;;;;28.95;4.10;;;11.50;99.90;;;;;;5037017;28;20386;-71
2023/11/19 06:11:18;;;;;;;43.95;4.47;;;11.50;99.90;;;;;;5036509;28;20111;-71
2023/11/19 06:13:44;;;;;;;35.85;3.90;;;11.50;99.90;;;;;;5034406;28;20042;-71
2023/11/19 06:16:10;;;;;;;50.92;6.93;;;11.50;99.90;;;;;;5035824;28;20449;-72
2023/11/19 06:18:36;;;;;;;37.95;5.30;;;11.40;99.90;;;;;;5044538;28;20032;-71
2023/11/19 06:21:02;;;;;;;42.30;4.70;;;11.40;99.90;;;;;;5033580;28;20107;-71
2023/11/19 06:23:28;;;;;;;35.92;3.35;;;11.40;99.90;;;;;;5031062;28;20509;-71
2023/11/19 06:25:53;;;;;;;40.08;4.47;;;11.40;99.90;;;;;;5049525;28;20416;-71
2023/11/19 06:28:19;;;;;;;36.58;4.07;;;11.40;99.90;;;;;;5036598;28;20400;-71
2023/11/19 06:30:44;;;;;;;32.05;3.53;;;11.40;99.90;;;;;;5034274;28;20029;-71
2023/11/19 06:33:13;;;;;;;33.15;4.25;;;11.40;99.90;;;;;;5033276;28;20037;-71
2023/11/19 06:35:38;;;;;;;41.10;4.38;;;11.40;99.90;;;;;;5031179;28;20044;-72
2023/11/19 06:38:04;;;;;;;35.85;4.20;;;11.30;99.90;;;;;;5032551;28;20076;-71
2023/11/19 06:40:30;;;;;;;42.45;4.55;;;11.30;99.90;;;;;;5032548;28;20094;-71
2023/11/19 06:42:56;;;;;;;37.53;3.53;;;11.30;99.90;;;;;;5032555;28;20053;-71
2023/11/19 06:45:22;;;;;;;48.58;4.28;;;11.40;99.90;;;;;;5031555;28;20477;-71
2023/11/19 06:47:48;;;;;;;36.20;4.20;;;11.30;99.90;;;;;;5035886;28;20029;-72
2023/11/19 06:50:14;;;;;;;28.80;4.60;;;11.30;99.90;;;;;;5034604;28;20037;-72
2023/11/19 06:52:40;;;;;;;35.28;4.10;;;11.30;99.90;;;;;;5036483;28;20112;-72
2023/11/19 06:55:06;;;;;;;42.40;4.15;;;11.30;99.90;;;;;;5037932;28;20109;-71
2023/11/19 06:57:32;;;;;;;43.75;4.93;;;11.30;99.90;;;;;;5033029;28;20033;-72
2023/11/19 06:59:58;;;;;;;43.17;4.68;;;11.30;99.90;;;;;;5036579;28;20028;-71
2023/11/19 07:02:24;;;;;;;33.83;3.90;;;11.30;99.90;;;;;;5030246;28;20021;-72
2023/11/19 07:04:50;;;;;;;44.53;4.38;;;11.30;99.90;;;;;;5038289;28;20567;-71
2023/11/19 07:07:16;;;;;;;36.28;3.85;;;11.30;99.90;;;;;;5037365;28;20033;-71
2023/11/19 07:09:41;;;;;;;41.53;4.93;;;11.30;99.90;;;;;;5039790;28;20087;-71
2023/11/19 07:12:07;;;;;;;32.90;3.63;;;11.30;99.90;;;;;;5031855;28;20366;-71
2023/11/19 07:14:32;;;;;;;38.45;3.95;;;11.30;99.90;;;;;;5041323;28;20027;-71
2023/11/19 07:16:58;;;;;;;38.60;4.05;;;11.20;99.90;;;;;;5033277;28;20045;-71
2023/11/19 07:19:23;;;;;;;36.88;4.13;;;11.30;99.90;;;;;;5031623;28;20071;-71
2023/11/19 07:21:49;;;;;;;46.80;4.72;;;11.30;99.90;;;;;;5047621;28;20405;-72
2023/11/19 07:24:14;;;;;;;31.90;4.45;;;11.30;99.90;;;;;;5031293;28;20493;-71
2023/11/19 07:26:44;;;;;;;37.72;4.53;;;11.30;99.90;;;;;;5032777;28;20029;-71
2023/11/19 07:29:10;;;;;;;44.45;5.43;;;11.30;99.90;;;;;;5034344;28;20029;-71
2023/11/19 07:31:35;;;;;;;42.83;4.60;;;11.30;99.90;;;;;;5042900;28;20041;-71
2023/11/19 07:34:01;;;;;;;31.77;3.00;;;11.40;99.90;;;;;;5037834;28;20025;-71
2023/11/19 07:36:27;;;;;;;38.70;4.78;;;11.40;99.90;;;;;;5033863;28;20025;-71
2023/11/19 07:38:52;;;;;;;40.83;3.75;;;11.40;99.90;;;;;;5035669;28;20039;-71
2023/11/19 07:41:19;;;;;;;33.90;4.50;;;11.40;99.90;;;;;;5042268;28;20148;-71
2023/11/19 07:43:46;;;;;;;35.15;5.05;;;11.40;99.90;;;;;;5033114;28;20056;-71
2023/11/19 07:46:12;;;;;;;32.28;4.35;;;11.50;99.90;;;;;;5037151;28;20108;-72
2023/11/19 07:48:38;;;;;;;38.40;4.88;;;11.50;99.90;;;;;;5032255;28;20028;-72
2023/11/19 07:51:04;;;;;;;34.08;3.35;;;11.60;99.90;;;;;;5043631;28;20033;-72
2023/11/19 07:53:30;;;;;;;37.45;3.67;;;11.70;99.90;;;;;;5037860;28;20551;-72
2023/11/19 07:55:55;;;;;;;25.92;3.13;;;11.80;99.90;;;;;;5039234;28;20029;-72
2023/11/19 07:58:21;;;;;;;27.70;3.58;;;11.80;99.90;;;;;;5038926;28;20033;-72
2023/11/19 08:00:46;;;;;;;30.45;4.15;;;11.80;99.90;;;;;;5035945;28;20119;-72
2023/11/19 08:03:12;;;;;;;32.50;4.00;;;11.90;99.90;;;;;;5042353;28;20443;-71
2023/11/19 08:05:37;;;;;;;35.15;4.25;;;12.00;99.90;;;;;;5036923;28;20443;-71
2023/11/19 08:08:03;;;;;;;24.75;2.85;;;12.00;99.90;;;;;;5035998;28;20149;-70
2023/11/19 08:10:29;;;;;;;43.72;4.90;;;12.00;99.90;;;;;;5037288;28;20029;-72
2023/11/19 08:12:54;;;;;;;34.65;4.22;;;12.00;99.90;;;;;;5038011;28;20041;-72
2023/11/19 08:15:20;;;;;;;35.15;4.65;;;12.00;99.90;;;;;;5042871;28;20037;-71
2023/11/19 08:17:47;;;;;;;31.52;3.60;;;12.00;99.90;;;;;;5038142;28;21825;-72
2023/11/19 08:20:13;;;;;;;32.28;3.70;;;12.00;99.90;;;;;;5038469;28;20021;-72
2023/11/19 08:22:38;;;;;;;29.80;3.33;;;12.00;99.90;;;;;;5041757;28;20036;-72
2023/11/19 08:25:08;;;;;;;31.52;3.58;;;12.00;99.90;;;;;;5035748;28;20056;-72
2023/11/19 08:27:33;;;;;;;39.97;4.72;;;12.10;99.90;;;;;;5039665;28;20049;-72
2023/11/19 08:29:59;;;;;;;31.85;3.80;;;12.10;99.90;;;;;;5042841;28;20496;-72
2023/11/19 08:32:26;;;;;;;35.60;3.58;;;12.10;99.90;;;;;;5044580;28;20057;-72
2023/11/19 08:34:51;;;;;;;34.72;4.13;;;12.10;99.90;;;;;;5048206;28;20025;-72
2023/11/19 08:37:23;;;;;;;28.50;3.80;;;12.20;99.90;;;;;;5039161;28;20534;-72
2023/11/19 08:39:50;;;;;;;35.95;3.92;;;12.30;99.90;;;;;;5046379;28;20397;-72
2023/11/19 08:42:16;;;;;;;32.88;3.22;;;12.20;99.90;;;;;;5041412;28;20029;-72
2023/11/19 08:44:47;;;;;;;35.78;4.65;;;12.20;99.90;;;;;;5033724;28;20036;-72
2023/11/19 08:47:13;;;;;;;38.85;4.00;;;12.30;99.90;;;;;;5047184;28;20040;-72
2023/11/19 08:49:39;;;;;;;32.50;3.80;;;12.30;99.90;;;;;;5043411;28;20108;-72
2023/11/19 08:52:07;;;;;;;38.78;5.10;;;12.20;99.90;;;;;;5036977;28;20021;-72
2023/11/19 08:54:33;;;;;;;29.90;5.82;;;12.20;99.90;;;;;;5048247;28;20029;-72
2023/11/19 08:56:59;;;;;;;40.80;4.10;;;12.10;99.90;;;;;;5044728;28;20077;-72
2023/11/19 08:59:25;;;;;;;28.88;3.63;;;12.10;99.90;;;;;;5038304;28;20575;-72
2023/11/19 09:01:50;;;;;;;33.35;3.35;;;12.20;99.90;;;;;;5040743;28;20033;-72
2023/11/19 09:04:16;;;;;;;32.33;3.95;;;12.20;99.90;;;;;;5037915;28;20037;-71
2023/11/19 09:06:42;;;;;;;30.65;3.47;;;12.30;99.90;;;;;;5039420;28;20032;-71
2023/11/19 09:09:08;;;;;;;27.27;3.72;;;12.30;99.90;;;;;;5043707;28;20040;-72
2023/11/19 09:11:34;;;;;;;30.45;3.63;;;12.40;99.90;;;;;;5042765;28;20040;-71
2023/11/19 09:13:59;;;;;;;32.10;3.67;;;12.40;99.90;;;;;;5037926;28;20025;-72
2023/11/19 09:16:25;;;;;;;27.63;3.53;;;12.40;99.90;;;;;;5037397;28;20025;-72
2023/11/19 09:18:51;;;;;;;31.02;3.80;;;12.50;99.90;;;;;;5033387;28;20052;-72
2023/11/19 09:21:16;;;;;;;29.92;3.50;;;12.50;99.90;;;;;;5037245;28;20057;-72
2023/11/19 09:23:42;;;;;;;36.60;4.15;;;12.50;99.90;;;;;;5034905;28;20044;-72
2023/11/19 09:26:11;;;;;;;42.45;3.60;;;12.50;99.90;;;;;;5045140;28;20021;-72
2023/11/19 09:28:37;;;;;;;33.90;3.72;;;12.50;99.90;;;;;;5045605;28;20044;-72
2023/11/19 09:31:06;;;;;;;34.35;4.10;;;12.50;99.90;;;;;;5047555;28;20013;-72
2023/11/19 09:33:31;;;;;;;39.08;4.03;;;12.50;99.90;;;;;;5048524;28;20060;-72
2023/11/19 09:35:57;;;;;;;34.80;4.50;;;12.50;99.90;;;;;;5041650;28;20479;-72
2023/11/19 09:38:23;;;;;;;29.90;3.30;;;12.50;99.90;;;;;;5033354;28;20030;-72
2023/11/19 09:40:48;;;;;;;31.70;3.03;;;12.50;99.90;;;;;;5040183;28;20013;-71
2023/11/19 09:43:15;;;;;;;27.52;2.97;;;12.50;99.90;;;;;;5050710;28;20037;-72
2023/11/19 09:45:50;;;;;;;33.08;4.15;;;12.60;99.90;;;;;;5053168;28;20028;-72
2023/11/19 09:48:19;;;;;;;33.45;3.20;;;12.80;99.90;;;;;;5051579;28;20025;-72
2023/11/19 09:50:47;;;;;;;31.45;4.10;;;13.00;99.90;;;;;;5033072;28;20113;-72
2023/11/19 09:53:13;;;;;;;31.08;3.75;;;13.10;99.90;;;;;;5043393;28;20033;-72
2023/11/19 09:55:39;;;;;;;24.95;3.25;;;13.20;99.90;;;;;;5033600;28;20021;-72
2023/11/19 09:58:06;;;;;;;26.30;3.90;;;13.20;99.90;;;;;;5036867;28;20511;-71
2023/11/19 10:00:32;;;;;;;30.65;3.63;;;13.20;99.90;;;;;;5032896;28;20026;-72
2023/11/19 10:02:59;;;;;;;26.60;3.90;;;13.20;99.90;;;;;;5032660;28;20508;-72
2023/11/19 10:05:26;;;;;;;22.88;3.90;;;13.20;99.90;;;;;;5032522;28;20033;-72
2023/11/19 10:07:52;;;;;;;25.63;3.13;;;13.30;99.90;;;;;;5032277;28;20500;-72
2023/11/19 10:10:19;;;;;;;35.10;4.35;;;13.30;99.90;;;;;;5036858;28;20516;-71
2023/11/19 10:12:47;;;;;;;33.30;4.03;;;13.40;99.90;;;;;;5032554;28;20424;-72
2023/11/19 10:15:24;;;;;;;33.70;4.57;;;13.40;99.90;;;;;;5050172;28;20043;-71
2023/11/19 10:17:58;;;;;;;34.00;4.38;;;13.50;99.90;;;;;;5051280;28;20028;-72
2023/11/19 10:20:23;;;;;;;24.27;4.30;;;13.60;99.90;;;;;;5031579;28;20025;-71
2023/11/19 10:22:55;;;;;;;36.70;4.72;;;13.60;99.90;;;;;;5032607;28;20037;-71
2023/11/19 10:25:28;;;;;;;34.78;4.05;;;13.60;99.90;;;;;;5032718;28;20025;-71
2023/11/19 10:27:55;;;;;;;26.40;2.63;;;13.70;99.90;;;;;;5030939;28;20025;-72
2023/11/19 10:30:29;;;;;;;24.20;3.80;;;13.70;99.90;;;;;;5033387;28;20554;-72
2023/11/19 10:33:08;;;;;;;27.13;3.17;;;13.70;99.90;;;;;;5032492;28;20035;-72
2023/11/19 10:35:36;;;;;;;31.30;4.30;;;13.70;99.90;;;;;;5031873;28;20168;-72
2023/11/19 10:38:14;;;;;;;25.08;2.72;;;13.70;99.90;;;;;;5027826;28;20029;-72
2023/11/19 10:40:40;;;;;;;30.98;3.65;;;13.60;99.90;;;;;;5035616;28;20056;-72
2023/11/19 10:43:07;;;;;;;26.67;3.15;;;13.60;99.90;;;;;;5031681;28;20052;-72
2023/11/19 10:45:38;;;;;;;29.48;3.30;;;13.60;99.90;;;;;;5029721;28;20043;-72
2023/11/19 10:48:06;;;;;;;21.77;2.47;;;13.60;99.90;;;;;;5029333;28;20022;-72
2023/11/19 10:50:36;;;;;;;22.88;2.58;;;13.70;99.90;;;;;;5031702;28;20037;-72
2023/11/19 10:53:03;;;;;;;32.10;3.50;;;13.60;99.90;;;;;;5031214;28;20539;-72
2023/11/19 10:55:35;;;;;;;29.65;3.10;;;13.60;99.90;;;;;;5031772;28;20087;-72
2023/11/19 10:58:05;;;;;;;26.52;3.20;;;13.70;99.90;;;;;;5032182;28;20141;-72
2023/11/19 11:00:46;;;;;;;27.58;3.97;;;13.70;99.90;;;;;;5039411;28;20029;-72
2023/11/19 11:03:24;;;;;;;34.65;3.47;;;13.70;99.90;;;;;;5033927;28;20121;-72
2023/11/19 11:05:52;;;;;;;26.63;3.75;;;13.70;99.90;;;;;;5042157;28;20366;-72
2023/11/19 11:08:19;;;;;;;28.05;3.83;;;13.70;99.90;;;;;;5035383;28;20029;-72
2023/11/19 11:10:53;;;;;;;21.80;2.83;;;13.70;99.90;;;;;;5030767;28;20147;-72
2023/11/19 11:13:19;;;;;;;27.88;3.83;;;13.70;99.90;;;;;;5036631;28;20030;-72
2023/11/19 11:15:49;;;;;;;26.77;3.05;;;13.70;99.90;;;;;;5030949;28;20052;-72
2023/11/19 11:18:14;;;;;;;26.55;2.80;;;13.70;99.90;;;;;;5032965;28;20025;-72
2023/11/19 11:20:40;;;;;;;31.75;3.63;;;13.80;99.90;;;;;;5029863;28;20499;-72
2023/11/19 11:23:30;;;;;;;29.98;3.95;;;13.80;99.90;;;;;;5029494;28;20048;-72
2023/11/19 11:26:41;;;;;;;26.75;3.05;;;13.90;99.90;;;;;;5048784;28;20021;-72
2023/11/19 11:29:35;;;;;;;25.85;3.03;;;13.90;99.90;;;;;;5051100;28;20020;-72
2023/11/19 11:32:27;;;;;;;35.08;4.15;;;14.00;99.90;;;;;;5043050;28;20033;-72
2023/11/19 11:35:23;;;;;;;26.13;3.67;;;14.20;99.90;;;;;;5035675;28;20043;-72
2023/11/19 11:37:55;;;;;;;28.50;3.38;;;14.40;99.90;;;;;;5044720;28;20029;-72
2023/11/19 11:40:23;;;;;;;28.52;3.35;;;14.40;99.90;;;;;;5051260;28;20385;-72
2023/11/19 11:42:51;;;;;;;28.50;3.70;;;14.40;99.90;;;;;;5044295;28;20048;-72
2023/11/19 11:45:17;;;;;;;23.45;3.08;;;14.40;99.90;;;;;;5029428;28;20497;-72
2023/11/19 11:48:04;;;;;;;25.60;3.15;;;14.40;99.90;;;;;;5029119;28;20036;-72
2023/11/19 11:50:33;;;;;;;26.33;2.88;;;14.40;99.90;;;;;;5040052;28;20021;-72
2023/11/19 11:52:58;;;;;;;26.80;3.42;;;14.40;99.90;;;;;;5041463;28;20488;-72
2023/11/19 11:55:24;;;;;;;31.00;4.60;;;14.30;99.90;;;;;;5041466;28;20091;-72
2023/11/19 11:57:50;;;;;;;25.27;3.15;;;14.30;99.90;;;;;;5039061;28;20037;-72
2023/11/19 12:00:43;;;;;;;32.35;3.92;;;14.20;99.90;;;;;;5038536;28;20084;-72
2023/11/19 12:03:09;;;;;;;;;;;14.20;99.90;;;;;;5030839;28;20037;-72
2023/11/19 12:05:45;;;;;;;24.30;2.53;;;14.20;99.90;;;;;;5037334;28;19909;-72
2023/11/19 12:08:14;;;;;;;23.55;2.90;;;14.20;99.90;;;;;;5033698;28;20448;-73
2023/11/19 12:10:48;;;;;;;24.67;2.45;;;14.10;99.90;;;;;;5038655;28;20029;-73
2023/11/19 12:13:14;;;;;;;18.80;2.15;;;14.10;99.90;;;;;;5049533;28;20033;-72
2023/11/19 12:15:58;;;;;;;23.80;3.42;;;14.00;99.90;;;;;;5033487;28;20026;-72
2023/11/19 12:18:28;;;;;;;23.73;2.60;;;14.00;99.90;;;;;;5036784;28;20025;-73
2023/11/19 12:20:54;;;;;;;19.35;2.75;;;14.00;99.90;;;;;;5042092;28;20468;-72
2023/11/19 12:23:20;;;;;;;20.02;2.22;;;14.00;99.90;;;;;;5035680;28;20037;-73
2023/11/19 12:25:45;;;;;;;17.30;2.00;;;14.00;99.90;;;;;;5034236;28;20031;-73
2023/11/19 12:28:17;;;;;;;21.23;2.95;;;14.00;99.90;;;;;;5035282;28;20163;-73
2023/11/19 12:30:43;;;;;;;17.80;2.03;;;14.00;99.90;;;;;;5035166;28;20039;-73
2023/11/19 12:33:10;;;;;;;17.55;1.77;;;14.00;99.90;;;;;;5031728;28;20508;-72
2023/11/19 12:35:43;;;;;;;16.73;1.45;;;14.10;99.90;;;;;;5035727;28;20589;-73
2023/11/19 12:38:21;;;;;;;17.52;2.40;;;14.10;99.90;;;;;;5037685;28;20097;-73
2023/11/19 12:41:01;;;;;;;21.20;2.50;;;14.10;99.90;;;;;;5034791;28;20120;-73